Terminal Aerodrome Forecast
Issued by NWS Upton, NY

Home | Current Version | Previous Version | Text Only | Print | Product List | Glossary On
Versions: 1 2 3 4 5 6 7 8 9 10 11 12 13 14 15 16 17 18 19 20 21 22 23 24 25 26 27 28 29 30
664
FTUS41 KOKX 260357 AAC
TAFJFK
TAF AMD
KJFK 260357Z 2604/2706 20010KT P6SM SCT007 SCT060 BKN150
      TEMPO 2604/2606 BKN007
     FM261000 32008KT P6SM SCT250
     FM261600 26011G19KT P6SM SCT050 SCT250
     FM262000 24014G20KT P6SM SCT050 SCT250
     FM270100 28010KT P6SM FEW050 FEW250=

USA.gov is the U.S. government's official web portal to all federal, state and local government web resources and services.